sensor_id;sensor_type;location;lat;lon;timestamp;P1;durP1;ratioP1;P2;durP2;ratioP2
7519;SDS011;3801;48.876;10.184;2023-02-28T00:02:55;6.03;;;3.23;;
7519;SDS011;3801;48.876;10.184;2023-02-28T00:07:58;4.50;;;2.33;;
7519;SDS011;3801;48.876;10.184;2023-02-28T00:13:04;5.83;;;3.47;;
7519;SDS011;3801;48.876;10.184;2023-02-28T00:18:08;4.00;;;2.83;;
7519;SDS011;3801;48.876;10.184;2023-02-28T00:23:13;4.63;;;3.37;;
7519;SDS011;3801;48.876;10.184;2023-02-28T00:28:19;2.97;;;2.53;;
7519;SDS011;3801;48.876;10.184;2023-02-28T00:33:23;3.97;;;3.07;;
7519;SDS011;3801;48.876;10.184;2023-02-28T00:38:26;4.43;;;3.13;;
7519;SDS011;3801;48.876;10.184;2023-02-28T00:43:31;7.50;;;3.80;;
7519;SDS011;3801;48.876;10.184;2023-02-28T00:48:35;6.03;;;3.37;;
7519;SDS011;3801;48.876;10.184;2023-02-28T00:53:38;4.73;;;3.30;;
7519;SDS011;3801;48.876;10.184;2023-02-28T00:58:43;4.50;;;3.17;;
7519;SDS011;3801;48.876;10.184;2023-02-28T01:03:47;6.77;;;4.27;;
7519;SDS011;3801;48.876;10.184;2023-02-28T01:08:50;7.10;;;4.17;;
7519;SDS011;3801;48.876;10.184;2023-02-28T01:13:55;9.20;;;4.30;;
7519;SDS011;3801;48.876;10.184;2023-02-28T01:18:58;6.27;;;4.03;;
7519;SDS011;3801;48.876;10.184;2023-02-28T01:24:02;6.43;;;3.53;;
7519;SDS011;3801;48.876;10.184;2023-02-28T01:29:07;5.30;;;3.67;;
7519;SDS011;3801;48.876;10.184;2023-02-28T01:34:10;6.60;;;3.83;;
7519;SDS011;3801;48.876;10.184;2023-02-28T01:39:14;4.83;;;3.33;;
7519;SDS011;3801;48.876;10.184;2023-02-28T01:49:40;3.90;;;3.20;;
7519;SDS011;3801;48.876;10.184;2023-02-28T01:54:44;7.37;;;3.63;;
7519;SDS011;3801;48.876;10.184;2023-02-28T01:59:50;5.27;;;3.67;;
7519;SDS011;3801;48.876;10.184;2023-02-28T02:04:56;4.07;;;3.20;;
7519;SDS011;3801;48.876;10.184;2023-02-28T02:10:05;5.63;;;4.00;;
7519;SDS011;3801;48.876;10.184;2023-02-28T02:15:10;4.53;;;3.40;;
7519;SDS011;3801;48.876;10.184;2023-02-28T02:20:22;5.00;;;3.20;;
7519;SDS011;3801;48.876;10.184;2023-02-28T02:25:31;7.97;;;3.40;;
7519;SDS011;3801;48.876;10.184;2023-02-28T02:36:02;5.57;;;3.50;;
7519;SDS011;3801;48.876;10.184;2023-02-28T02:41:10;7.40;;;4.13;;
7519;SDS011;3801;48.876;10.184;2023-02-28T02:46:17;4.60;;;3.63;;
7519;SDS011;3801;48.876;10.184;2023-02-28T02:51:24;5.03;;;3.70;;
7519;SDS011;3801;48.876;10.184;2023-02-28T02:56:28;7.00;;;3.80;;
7519;SDS011;3801;48.876;10.184;2023-02-28T03:01:32;4.33;;;3.47;;
7519;SDS011;3801;48.876;10.184;2023-02-28T03:06:39;6.40;;;3.77;;
7519;SDS011;3801;48.876;10.184;2023-02-28T03:11:43;4.57;;;3.37;;
7519;SDS011;3801;48.876;10.184;2023-02-28T03:16:49;5.57;;;3.73;;
7519;SDS011;3801;48.876;10.184;2023-02-28T03:22:01;4.70;;;3.40;;
7519;SDS011;3801;48.876;10.184;2023-02-28T03:27:08;10.90;;;4.07;;
7519;SDS011;3801;48.876;10.184;2023-02-28T03:32:16;7.27;;;3.97;;
7519;SDS011;3801;48.876;10.184;2023-02-28T03:37:24;5.80;;;3.63;;
7519;SDS011;3801;48.876;10.184;2023-02-28T03:42:29;5.73;;;4.07;;
7519;SDS011;3801;48.876;10.184;2023-02-28T03:47:35;7.57;;;4.33;;
7519;SDS011;3801;48.876;10.184;2023-02-28T03:52:42;9.57;;;4.37;;
7519;SDS011;3801;48.876;10.184;2023-02-28T03:57:50;4.87;;;4.23;;
7519;SDS011;3801;48.876;10.184;2023-02-28T04:02:58;7.67;;;4.40;;
7519;SDS011;3801;48.876;10.184;2023-02-28T04:08:06;8.03;;;4.53;;
7519;SDS011;3801;48.876;10.184;2023-02-28T04:13:10;7.70;;;5.27;;
7519;SDS011;3801;48.876;10.184;2023-02-28T04:18:13;9.50;;;4.87;;
7519;SDS011;3801;48.876;10.184;2023-02-28T04:23:19;4.30;;;2.90;;
7519;SDS011;3801;48.876;10.184;2023-02-28T04:28:22;9.13;;;5.63;;
7519;SDS011;3801;48.876;10.184;2023-02-28T04:33:26;6.17;;;4.37;;
7519;SDS011;3801;48.876;10.184;2023-02-28T04:38:32;8.20;;;4.70;;
7519;SDS011;3801;48.876;10.184;2023-02-28T04:43:35;7.53;;;5.00;;
7519;SDS011;3801;48.876;10.184;2023-02-28T04:48:39;6.93;;;3.60;;
7519;SDS011;3801;48.876;10.184;2023-02-28T04:53:44;4.83;;;3.37;;
7519;SDS011;3801;48.876;10.184;2023-02-28T04:58:47;8.87;;;6.00;;
7519;SDS011;3801;48.876;10.184;2023-02-28T05:03:53;8.83;;;6.60;;
7519;SDS011;3801;48.876;10.184;2023-02-28T05:08:59;6.53;;;4.67;;
7519;SDS011;3801;48.876;10.184;2023-02-28T05:14:03;5.93;;;4.50;;
7519;SDS011;3801;48.876;10.184;2023-02-28T05:19:07;10.03;;;5.83;;
7519;SDS011;3801;48.876;10.184;2023-02-28T05:24:12;10.30;;;6.17;;
7519;SDS011;3801;48.876;10.184;2023-02-28T05:29:15;16.93;;;9.40;;
7519;SDS011;3801;48.876;10.184;2023-02-28T05:34:19;10.33;;;5.53;;
7519;SDS011;3801;48.876;10.184;2023-02-28T05:39:24;26.77;;;11.17;;
7519;SDS011;3801;48.876;10.184;2023-02-28T05:44:28;14.33;;;8.50;;
7519;SDS011;3801;48.876;10.184;2023-02-28T05:49:31;19.03;;;9.87;;
7519;SDS011;3801;48.876;10.184;2023-02-28T05:54:36;25.60;;;13.67;;
7519;SDS011;3801;48.876;10.184;2023-02-28T05:59:39;15.57;;;8.87;;
7519;SDS011;3801;48.876;10.184;2023-02-28T06:04:43;7.50;;;4.80;;
7519;SDS011;3801;48.876;10.184;2023-02-28T06:09:48;11.40;;;6.97;;
7519;SDS011;3801;48.876;10.184;2023-02-28T06:14:51;16.57;;;9.37;;
7519;SDS011;3801;48.876;10.184;2023-02-28T06:19:55;12.77;;;8.07;;
7519;SDS011;3801;48.876;10.184;2023-02-28T06:25:00;17.17;;;8.73;;
7519;SDS011;3801;48.876;10.184;2023-02-28T06:30:04;11.90;;;7.30;;
7519;SDS011;3801;48.876;10.184;2023-02-28T06:35:07;11.20;;;7.00;;
7519;SDS011;3801;48.876;10.184;2023-02-28T06:40:14;10.67;;;6.50;;
7519;SDS011;3801;48.876;10.184;2023-02-28T06:45:17;10.20;;;6.07;;
7519;SDS011;3801;48.876;10.184;2023-02-28T06:50:21;9.83;;;4.97;;
7519;SDS011;3801;48.876;10.184;2023-02-28T06:55:25;10.43;;;5.87;;
7519;SDS011;3801;48.876;10.184;2023-02-28T07:00:31;9.10;;;5.73;;
7519;SDS011;3801;48.876;10.184;2023-02-28T07:05:35;12.13;;;6.67;;
7519;SDS011;3801;48.876;10.184;2023-02-28T07:10:40;15.77;;;12.57;;
7519;SDS011;3801;48.876;10.184;2023-02-28T07:15:44;11.40;;;7.03;;
7519;SDS011;3801;48.876;10.184;2023-02-28T07:20:47;11.87;;;6.40;;
7519;SDS011;3801;48.876;10.184;2023-02-28T07:25:52;12.93;;;6.77;;
7519;SDS011;3801;48.876;10.184;2023-02-28T07:30:55;12.43;;;6.03;;
7519;SDS011;3801;48.876;10.184;2023-02-28T07:36:00;12.03;;;7.00;;
7519;SDS011;3801;48.876;10.184;2023-02-28T07:41:05;15.83;;;8.73;;
7519;SDS011;3801;48.876;10.184;2023-02-28T07:46:10;12.07;;;7.03;;
7519;SDS011;3801;48.876;10.184;2023-02-28T07:51:14;13.63;;;7.43;;
7519;SDS011;3801;48.876;10.184;2023-02-28T07:56:19;19.93;;;9.50;;
7519;SDS011;3801;48.876;10.184;2023-02-28T08:01:22;17.50;;;8.67;;
7519;SDS011;3801;48.876;10.184;2023-02-28T08:06:26;18.50;;;9.17;;
7519;SDS011;3801;48.876;10.184;2023-02-28T08:11:30;14.30;;;6.83;;
7519;SDS011;3801;48.876;10.184;2023-02-28T08:16:34;13.73;;;8.17;;
7519;SDS011;3801;48.876;10.184;2023-02-28T08:21:38;13.60;;;8.70;;
7519;SDS011;3801;48.876;10.184;2023-02-28T08:26:43;17.17;;;8.13;;
7519;SDS011;3801;48.876;10.184;2023-02-28T08:31:47;11.53;;;7.03;;
7519;SDS011;3801;48.876;10.184;2023-02-28T08:36:51;11.00;;;7.47;;
7519;SDS011;3801;48.876;10.184;2023-02-28T08:41:56;10.83;;;7.37;;
7519;SDS011;3801;48.876;10.184;2023-02-28T08:47:08;11.17;;;7.27;;
7519;SDS011;3801;48.876;10.184;2023-02-28T08:52:12;14.13;;;8.17;;
7519;SDS011;3801;48.876;10.184;2023-02-28T08:57:16;14.50;;;6.57;;
7519;SDS011;3801;48.876;10.184;2023-02-28T09:02:20;14.00;;;7.37;;
7519;SDS011;3801;48.876;10.184;2023-02-28T09:07:23;11.93;;;6.80;;
7519;SDS011;3801;48.876;10.184;2023-02-28T09:12:28;11.20;;;7.27;;
7519;SDS011;3801;48.876;10.184;2023-02-28T09:17:34;12.87;;;7.40;;
7519;SDS011;3801;48.876;10.184;2023-02-28T09:22:38;10.50;;;7.00;;
7519;SDS011;3801;48.876;10.184;2023-02-28T09:27:43;10.73;;;6.77;;
7519;SDS011;3801;48.876;10.184;2023-02-28T09:32:47;12.63;;;7.67;;
7519;SDS011;3801;48.876;10.184;2023-02-28T09:37:53;8.80;;;5.47;;
7519;SDS011;3801;48.876;10.184;2023-02-28T09:42:58;11.43;;;6.63;;
7519;SDS011;3801;48.876;10.184;2023-02-28T09:48:03;11.93;;;7.33;;
7519;SDS011;3801;48.876;10.184;2023-02-28T09:53:11;9.67;;;6.17;;
7519;SDS011;3801;48.876;10.184;2023-02-28T09:58:20;9.03;;;6.37;;
7519;SDS011;3801;48.876;10.184;2023-02-28T10:03:27;7.80;;;5.43;;
7519;SDS011;3801;48.876;10.184;2023-02-28T10:08:33;14.30;;;6.40;;
7519;SDS011;3801;48.876;10.184;2023-02-28T10:13:48;9.73;;;6.07;;
7519;SDS011;3801;48.876;10.184;2023-02-28T10:18:54;11.73;;;7.33;;
7519;SDS011;3801;48.876;10.184;2023-02-28T10:24:02;10.07;;;6.43;;
7519;SDS011;3801;48.876;10.184;2023-02-28T10:29:08;9.57;;;6.00;;
7519;SDS011;3801;48.876;10.184;2023-02-28T10:34:12;10.47;;;7.20;;
7519;SDS011;3801;48.876;10.184;2023-02-28T10:39:35;9.43;;;5.93;;
7519;SDS011;3801;48.876;10.184;2023-02-28T10:44:40;8.17;;;6.03;;
7519;SDS011;3801;48.876;10.184;2023-02-28T10:49:47;10.00;;;6.50;;
7519;SDS011;3801;48.876;10.184;2023-02-28T10:54:51;9.07;;;5.77;;
7519;SDS011;3801;48.876;10.184;2023-02-28T11:00:17;8.07;;;5.70;;
7519;SDS011;3801;48.876;10.184;2023-02-28T11:05:22;10.60;;;5.77;;
7519;SDS011;3801;48.876;10.184;2023-02-28T11:10:28;8.97;;;6.47;;
7519;SDS011;3801;48.876;10.184;2023-02-28T11:15:35;9.23;;;6.00;;
7519;SDS011;3801;48.876;10.184;2023-02-28T11:20:38;8.40;;;6.23;;
7519;SDS011;3801;48.876;10.184;2023-02-28T11:25:46;9.23;;;5.87;;
7519;SDS011;3801;48.876;10.184;2023-02-28T11:31:00;8.20;;;5.90;;
7519;SDS011;3801;48.876;10.184;2023-02-28T11:36:09;10.23;;;5.90;;
7519;SDS011;3801;48.876;10.184;2023-02-28T11:46:44;9.43;;;6.30;;
7519;SDS011;3801;48.876;10.184;2023-02-28T11:51:53;8.67;;;6.17;;
7519;SDS011;3801;48.876;10.184;2023-02-28T11:57:00;11.20;;;6.80;;
7519;SDS011;3801;48.876;10.184;2023-02-28T12:07:25;9.90;;;6.03;;
7519;SDS011;3801;48.876;10.184;2023-02-28T12:12:38;8.80;;;5.87;;
7519;SDS011;3801;48.876;10.184;2023-02-28T12:17:45;9.77;;;5.90;;
7519;SDS011;3801;48.876;10.184;2023-02-28T12:22:55;10.50;;;6.53;;
7519;SDS011;3801;48.876;10.184;2023-02-28T12:28:02;11.20;;;6.67;;
7519;SDS011;3801;48.876;10.184;2023-02-28T12:33:06;12.83;;;6.80;;
7519;SDS011;3801;48.876;10.184;2023-02-28T12:38:13;8.80;;;6.20;;
7519;SDS011;3801;48.876;10.184;2023-02-28T12:43:19;7.90;;;5.77;;
7519;SDS011;3801;48.876;10.184;2023-02-28T12:48:25;9.43;;;6.63;;
7519;SDS011;3801;48.876;10.184;2023-02-28T12:53:35;9.83;;;5.63;;
7519;SDS011;3801;48.876;10.184;2023-02-28T12:58:39;8.30;;;6.23;;
7519;SDS011;3801;48.876;10.184;2023-02-28T13:09:29;11.90;;;6.50;;
7519;SDS011;3801;48.876;10.184;2023-02-28T13:14:36;11.73;;;7.27;;
7519;SDS011;3801;48.876;10.184;2023-02-28T13:19:45;8.03;;;5.43;;
7519;SDS011;3801;48.876;10.184;2023-02-28T13:25:13;12.40;;;7.23;;
7519;SDS011;3801;48.876;10.184;2023-02-28T13:31:03;9.80;;;6.80;;
7519;SDS011;3801;48.876;10.184;2023-02-28T13:36:29;11.90;;;6.13;;
7519;SDS011;3801;48.876;10.184;2023-02-28T13:41:49;9.90;;;6.77;;
7519;SDS011;3801;48.876;10.184;2023-02-28T13:47:19;10.77;;;7.20;;
7519;SDS011;3801;48.876;10.184;2023-02-28T13:52:29;13.20;;;7.70;;
7519;SDS011;3801;48.876;10.184;2023-02-28T13:58:04;14.00;;;8.20;;
7519;SDS011;3801;48.876;10.184;2023-02-28T14:08:54;16.40;;;8.77;;
7519;SDS011;3801;48.876;10.184;2023-02-28T14:19:46;10.37;;;6.13;;
7519;SDS011;3801;48.876;10.184;2023-02-28T14:24:59;13.10;;;7.07;;
7519;SDS011;3801;48.876;10.184;2023-02-28T14:30:26;8.93;;;6.27;;
7519;SDS011;3801;48.876;10.184;2023-02-28T14:35:49;10.43;;;7.17;;
7519;SDS011;3801;48.876;10.184;2023-02-28T14:40:56;11.77;;;7.60;;
7519;SDS011;3801;48.876;10.184;2023-02-28T14:46:00;8.37;;;6.10;;
7519;SDS011;3801;48.876;10.184;2023-02-28T14:51:07;8.83;;;6.40;;
7519;SDS011;3801;48.876;10.184;2023-02-28T14:56:21;10.57;;;6.87;;
7519;SDS011;3801;48.876;10.184;2023-02-28T15:01:25;9.33;;;6.50;;
7519;SDS011;3801;48.876;10.184;2023-02-28T15:06:31;10.23;;;7.30;;
7519;SDS011;3801;48.876;10.184;2023-02-28T15:11:35;9.87;;;6.83;;
7519;SDS011;3801;48.876;10.184;2023-02-28T15:16:39;9.63;;;6.90;;
7519;SDS011;3801;48.876;10.184;2023-02-28T15:21:47;10.90;;;6.83;;
7519;SDS011;3801;48.876;10.184;2023-02-28T15:26:56;12.50;;;6.70;;
7519;SDS011;3801;48.876;10.184;2023-02-28T15:32:03;12.60;;;7.77;;
7519;SDS011;3801;48.876;10.184;2023-02-28T15:42:29;23.10;;;13.83;;
7519;SDS011;3801;48.876;10.184;2023-02-28T15:47:33;15.87;;;7.73;;
7519;SDS011;3801;48.876;10.184;2023-02-28T15:52:41;9.97;;;7.00;;
7519;SDS011;3801;48.876;10.184;2023-02-28T15:57:49;11.03;;;7.50;;
7519;SDS011;3801;48.876;10.184;2023-02-28T16:02:53;13.63;;;9.40;;
7519;SDS011;3801;48.876;10.184;2023-02-28T16:07:57;16.13;;;10.07;;
7519;SDS011;3801;48.876;10.184;2023-02-28T16:13:08;11.33;;;8.10;;
7519;SDS011;3801;48.876;10.184;2023-02-28T16:18:15;10.10;;;7.73;;
7519;SDS011;3801;48.876;10.184;2023-02-28T16:23:20;12.23;;;7.13;;
7519;SDS011;3801;48.876;10.184;2023-02-28T16:28:27;14.10;;;7.27;;
7519;SDS011;3801;48.876;10.184;2023-02-28T16:33:36;10.13;;;7.20;;
7519;SDS011;3801;48.876;10.184;2023-02-28T16:38:40;11.07;;;7.63;;
7519;SDS011;3801;48.876;10.184;2023-02-28T16:43:47;13.37;;;7.90;;
7519;SDS011;3801;48.876;10.184;2023-02-28T16:48:52;11.50;;;6.93;;
7519;SDS011;3801;48.876;10.184;2023-02-28T16:53:58;13.35;;;9.00;;
7519;SDS011;3801;48.876;10.184;2023-02-28T16:59:06;14.03;;;10.17;;
7519;SDS011;3801;48.876;10.184;2023-02-28T17:04:12;13.93;;;8.87;;
7519;SDS011;3801;48.876;10.184;2023-02-28T17:09:18;14.87;;;9.57;;
7519;SDS011;3801;48.876;10.184;2023-02-28T17:14:46;22.40;;;14.93;;
7519;SDS011;3801;48.876;10.184;2023-02-28T17:19:50;25.20;;;17.30;;
7519;SDS011;3801;48.876;10.184;2023-02-28T17:24:58;24.87;;;14.93;;
7519;SDS011;3801;48.876;10.184;2023-02-28T17:30:03;17.93;;;11.00;;
7519;SDS011;3801;48.876;10.184;2023-02-28T17:35:07;17.77;;;10.50;;
7519;SDS011;3801;48.876;10.184;2023-02-28T17:40:12;15.33;;;8.90;;
7519;SDS011;3801;48.876;10.184;2023-02-28T17:45:18;30.60;;;15.17;;
7519;SDS011;3801;48.876;10.184;2023-02-28T17:50:22;21.73;;;12.67;;
7519;SDS011;3801;48.876;10.184;2023-02-28T17:55:26;19.33;;;11.57;;
7519;SDS011;3801;48.876;10.184;2023-02-28T18:00:31;22.63;;;12.70;;
7519;SDS011;3801;48.876;10.184;2023-02-28T18:05:35;23.30;;;13.77;;
7519;SDS011;3801;48.876;10.184;2023-02-28T18:10:39;23.50;;;13.00;;
7519;SDS011;3801;48.876;10.184;2023-02-28T18:15:44;21.57;;;12.80;;
7519;SDS011;3801;48.876;10.184;2023-02-28T18:20:47;29.17;;;16.43;;
7519;SDS011;3801;48.876;10.184;2023-02-28T18:25:55;36.53;;;19.90;;
7519;SDS011;3801;48.876;10.184;2023-02-28T18:31:05;20.13;;;10.30;;
7519;SDS011;3801;48.876;10.184;2023-02-28T18:36:09;33.60;;;17.37;;
7519;SDS011;3801;48.876;10.184;2023-02-28T18:41:13;20.53;;;13.10;;
7519;SDS011;3801;48.876;10.184;2023-02-28T18:46:18;61.13;;;29.03;;
7519;SDS011;3801;48.876;10.184;2023-02-28T18:51:22;42.07;;;22.10;;
7519;SDS011;3801;48.876;10.184;2023-02-28T18:56:26;54.60;;;26.93;;
7519;SDS011;3801;48.876;10.184;2023-02-28T19:01:33;51.17;;;28.73;;
7519;SDS011;3801;48.876;10.184;2023-02-28T19:06:38;24.13;;;14.67;;
7519;SDS011;3801;48.876;10.184;2023-02-28T19:11:44;20.30;;;13.27;;
7519;SDS011;3801;48.876;10.184;2023-02-28T19:16:49;27.63;;;14.30;;
7519;SDS011;3801;48.876;10.184;2023-02-28T19:21:53;63.50;;;27.37;;
7519;SDS011;3801;48.876;10.184;2023-02-28T19:26:57;54.23;;;23.40;;
7519;SDS011;3801;48.876;10.184;2023-02-28T19:32:02;18.30;;;11.57;;
7519;SDS011;3801;48.876;10.184;2023-02-28T19:37:06;21.47;;;13.23;;
7519;SDS011;3801;48.876;10.184;2023-02-28T19:42:13;16.47;;;10.20;;
7519;SDS011;3801;48.876;10.184;2023-02-28T19:47:17;18.07;;;10.90;;
7519;SDS011;3801;48.876;10.184;2023-02-28T19:52:21;19.73;;;12.17;;
7519;SDS011;3801;48.876;10.184;2023-02-28T19:57:24;28.27;;;13.47;;
7519;SDS011;3801;48.876;10.184;2023-02-28T20:02:29;30.53;;;15.73;;
7519;SDS011;3801;48.876;10.184;2023-02-28T20:07:34;28.90;;;13.67;;
7519;SDS011;3801;48.876;10.184;2023-02-28T20:12:38;18.37;;;11.50;;
7519;SDS011;3801;48.876;10.184;2023-02-28T20:17:43;19.13;;;10.50;;
7519;SDS011;3801;48.876;10.184;2023-02-28T20:22:51;17.47;;;10.83;;
7519;SDS011;3801;48.876;10.184;2023-02-28T20:27:56;17.67;;;10.50;;
7519;SDS011;3801;48.876;10.184;2023-02-28T20:33:01;19.07;;;11.03;;
7519;SDS011;3801;48.876;10.184;2023-02-28T20:38:04;21.70;;;11.87;;
7519;SDS011;3801;48.876;10.184;2023-02-28T20:43:08;18.83;;;11.20;;
7519;SDS011;3801;48.876;10.184;2023-02-28T20:48:13;19.13;;;11.43;;
7519;SDS011;3801;48.876;10.184;2023-02-28T20:53:16;20.80;;;10.80;;
7519;SDS011;3801;48.876;10.184;2023-02-28T20:58:22;31.57;;;16.90;;
7519;SDS011;3801;48.876;10.184;2023-02-28T21:03:27;29.80;;;15.67;;
7519;SDS011;3801;48.876;10.184;2023-02-28T21:08:32;19.93;;;12.30;;
7519;SDS011;3801;48.876;10.184;2023-02-28T21:13:36;90.77;;;38.57;;
7519;SDS011;3801;48.876;10.184;2023-02-28T21:18:42;22.33;;;13.03;;
7519;SDS011;3801;48.876;10.184;2023-02-28T21:23:47;101.70;;;44.80;;
7519;SDS011;3801;48.876;10.184;2023-02-28T21:28:51;32.90;;;16.53;;
7519;SDS011;3801;48.876;10.184;2023-02-28T21:33:58;26.97;;;14.20;;
7519;SDS011;3801;48.876;10.184;2023-02-28T21:39:03;37.63;;;18.00;;
7519;SDS011;3801;48.876;10.184;2023-02-28T21:44:10;44.10;;;16.67;;
7519;SDS011;3801;48.876;10.184;2023-02-28T21:49:20;35.70;;;16.37;;
7519;SDS011;3801;48.876;10.184;2023-02-28T21:54:24;27.30;;;14.70;;
7519;SDS011;3801;48.876;10.184;2023-02-28T21:59:28;33.77;;;15.80;;
7519;SDS011;3801;48.876;10.184;2023-02-28T22:04:33;61.43;;;24.37;;
7519;SDS011;3801;48.876;10.184;2023-02-28T22:09:36;84.93;;;34.43;;
7519;SDS011;3801;48.876;10.184;2023-02-28T22:14:39;52.60;;;19.60;;
7519;SDS011;3801;48.876;10.184;2023-02-28T22:19:44;37.27;;;15.23;;
7519;SDS011;3801;48.876;10.184;2023-02-28T22:24:48;28.73;;;13.00;;
7519;SDS011;3801;48.876;10.184;2023-02-28T22:29:53;34.97;;;16.10;;
7519;SDS011;3801;48.876;10.184;2023-02-28T22:34:58;38.47;;;16.90;;
7519;SDS011;3801;48.876;10.184;2023-02-28T22:40:02;29.63;;;15.30;;
7519;SDS011;3801;48.876;10.184;2023-02-28T22:45:06;54.37;;;22.50;;
7519;SDS011;3801;48.876;10.184;2023-02-28T22:50:12;21.87;;;13.13;;
7519;SDS011;3801;48.876;10.184;2023-02-28T22:55:15;25.00;;;12.57;;
7519;SDS011;3801;48.876;10.184;2023-02-28T23:00:19;21.10;;;12.27;;
7519;SDS011;3801;48.876;10.184;2023-02-28T23:05:24;22.40;;;11.47;;
7519;SDS011;3801;48.876;10.184;2023-02-28T23:10:28;19.70;;;10.90;;
7519;SDS011;3801;48.876;10.184;2023-02-28T23:15:32;54.50;;;23.97;;
7519;SDS011;3801;48.876;10.184;2023-02-28T23:20:36;60.40;;;26.53;;
7519;SDS011;3801;48.876;10.184;2023-02-28T23:25:40;29.07;;;15.00;;
7519;SDS011;3801;48.876;10.184;2023-02-28T23:30:43;28.57;;;15.10;;
7519;SDS011;3801;48.876;10.184;2023-02-28T23:36:04;28.67;;;14.67;;
7519;SDS011;3801;48.876;10.184;2023-02-28T23:41:09;25.80;;;14.33;;
7519;SDS011;3801;48.876;10.184;2023-02-28T23:46:12;28.03;;;12.80;;
7519;SDS011;3801;48.876;10.184;2023-02-28T23:51:18;27.30;;;14.17;;
7519;SDS011;3801;48.876;10.184;2023-02-28T23:56:22;21.37;;;11.83;;
